Observation data for Turkey on 01/17/2019      Previous  Date  Next       Current Mesonet Observations  Soil Data  Daily Summary Page  Observations in Plain Language
KTUR 170600Z 29015G21KT 14/M01 A3001 RMK A01 T01421010  RH  035%=      5-min Rain = 0
KTUR 170605Z 29016G21KT 14/M01 A3001 RMK A01 T01431011  RH  035%=      5-min Rain = 0
KTUR 170610Z 29015KT 14/M01 A3001 RMK A01 T01411011  RH  036%=      5-min Rain = 0
KTUR 170615Z 28015G21KT 14/M01 A3001 RMK A01 T01391011  RH  036%=      5-min Rain = 0
KTUR 170620Z 28015KT 14/M01 A3001 RMK A01 T01391012  RH  036%=      5-min Rain = 0
KTUR 170625Z 28014KT 14/M01 A3002 RMK A01 T01361012  RH  036%=      5-min Rain = 0
KTUR 170630Z 27016KT 14/M01 A3001 RMK A01 T01371012  RH  036%=      5-min Rain = 0
KTUR 170635Z 27016G22KT 14/M01 A3001 RMK A01 T01391011  RH  036%=      5-min Rain = 0
KTUR 170640Z 27018KT 14/M01 A3001 RMK A01 T01401012  RH  035%=      5-min Rain = 0
KTUR 170645Z 27017G22KT 14/M01 A3001 RMK A01 T01391012  RH  036%=      5-min Rain = 0
KTUR 170650Z 27017G22KT 14/M01 A3001 RMK A01 T01371012  RH  036%=      5-min Rain = 0
KTUR 170655Z 27016KT 14/M01 A3001 RMK A01 T01381012  RH  036%=      5-min Rain = 0
KTUR 170700Z 27015G20KT 13/M01 A3001 RMK A01 T01331012  RH  037%=      5-min Rain = 0
KTUR 170705Z 27016G22KT 14/M01 A3001 RMK A01 T01351012  RH  037%=      5-min Rain = 0
KTUR 170710Z 27018G25KT 14/M01 A3001 RMK A01 T01351012  RH  037%=      5-min Rain = 0
KTUR 170715Z 27018G26KT 14/M01 A3001 RMK A01 T01361012  RH  036%=      5-min Rain = 0
KTUR 170720Z 27020KT 14/M01 A30 RMK A01 T01381012  RH  036%=      5-min Rain = 0
KTUR 170725Z 27021G26KT 14/M01 A30 RMK A01 T01371012  RH  036%=      5-min Rain = 0
KTUR 170730Z 27020G25KT 14/M01 A2999 RMK A01 T01351012  RH  037%=      5-min Rain = 0
KTUR 170735Z 27020G25KT 14/M01 A2999 RMK A01 T01351012  RH  037%=      5-min Rain = 0
KTUR 170740Z 27019G25KT 14/M01 A30 RMK A01 T01351012  RH  037%=      5-min Rain = 0
KTUR 170745Z 28019G24KT 13/M01 A30 RMK A01 T01331012  RH  037%=      5-min Rain = 0
KTUR 170750Z 28017KT 13/M01 A30 RMK A01 T01341013  RH  037%=      5-min Rain = 0
KTUR 170755Z 28015KT 13/M01 A30 RMK A01 T01321013  RH  037%=      5-min Rain = 0
KTUR 170800Z 28013G18KT 13/M01 A3001 RMK A01 T01291014  RH  038%=      5-min Rain = 0
KTUR 170805Z 28012KT 13/M01 A3001 RMK A01 T01261014  RH  038%=      5-min Rain = 0
KTUR 170810Z 30010KT 12/M01 A3001 RMK A01 T01231014  RH  039%=      5-min Rain = 0
KTUR 170815Z 30009KT 12/M02 A3002 RMK A01 T01181016  RH  040%=      5-min Rain = 0
KTUR 170820Z 31010KT 11/M02 A3002 RMK A01 T01121015  RH  042%=      5-min Rain = 0
KTUR 170825Z 32015G20KT 12/M01 A3003 RMK A01 T01161010  RH  042%=      5-min Rain = 0
KTUR 170830Z 31017KT 12/M01 A3003 RMK A01 T01231008  RH  041%=      5-min Rain = 0
KTUR 170835Z 31014KT 12/M01 A3003 RMK A01 T01191007  RH  042%=      5-min Rain = 0
KTUR 170840Z 30014G20KT 12/M01 A3003 RMK A01 T01181007  RH  043%=      5-min Rain = 0
KTUR 170845Z 30013G18KT 12/M01 A3004 RMK A01 T01171007  RH  043%=      5-min Rain = 0
KTUR 170850Z 33009G14KT 11/M01 A3005 RMK A01 T01131008  RH  044%=      5-min Rain = 0
KTUR 170855Z 05007KT 10/M01 A3006 RMK A01 T00971010  RH  048%=      5-min Rain = 0
KTUR 170900Z 06006KT 08/M01 A3006 RMK A01 T00801011  RH  053%=      5-min Rain = 0
KTUR 170905Z 04004KT 07/M01 A3006 RMK A01 T00741011  RH  055%=      5-min Rain = 0
KTUR 170910Z 33003KT 08/M01 A3006 RMK A01 T00801009  RH  054%=      5-min Rain = 0
KTUR 170915Z 30005KT 09/M01 A3006 RMK A01 T00861009  RH  052%=      5-min Rain = 0
KTUR 170920Z 32007KT 08/M01 A3006 RMK A01 T00761012  RH  055%=      5-min Rain = 0
KTUR 170925Z 32007KT 07/M01 A3006 RMK A01 T00681012  RH  058%=      5-min Rain = 0
KTUR 170930Z 31005KT 07/M01 A3006 RMK A01 T00661011  RH  058%=      5-min Rain = 0
KTUR 170935Z 30004KT 07/M01 A3006 RMK A01 T00661013  RH  058%=      5-min Rain = 0
KTUR 170940Z 30002KT 06/M01 A3007 RMK A01 T00631013  RH  059%=      5-min Rain = 0
KTUR 170945Z 15001KT 06/M02 A3007 RMK A01 T00591015  RH  060%=      5-min Rain = 0
KTUR 170950Z 16002KT 06/M01 A3008 RMK A01 T00571014  RH  061%=      5-min Rain = 0
KTUR 170955Z 17003KT 06/M01 A3008 RMK A01 T00561014  RH  061%=      5-min Rain = 0
KTUR 171000Z 21004KT 06/M01 A3008 RMK A01 T00551014  RH  062%=      5-min Rain = 0
KTUR 171005Z 27003KT 06/M01 A3008 RMK A01 T00551013  RH  062%=      5-min Rain = 0
KTUR 171010Z 29003KT 06/M01 A3009 RMK A01 T00621009  RH  061%=      5-min Rain = 0
KTUR 171015Z 30002KT 07/M01 A3009 RMK A01 T00651007  RH  061%=      5-min Rain = 0
KTUR 171020Z 03004KT 06/M01 A301 RMK A01 T00571012  RH  062%=      5-min Rain = 0
KTUR 171025Z 05006KT 04/M02 A301 RMK A01 T00411015  RH  068%=      5-min Rain = 0
KTUR 171030Z 04006KT 04/M01 A301 RMK A01 T00401013  RH  069%=      5-min Rain = 0
KTUR 171035Z 03005KT 04/M01 A301 RMK A01 T00401010  RH  070%=      5-min Rain = 0
KTUR 171040Z 02005KT 04/M01 A301 RMK A01 T00361011  RH  072%=      5-min Rain = 0
KTUR 171045Z 01004KT 04/M01 A3009 RMK A01 T00351010  RH  073%=      5-min Rain = 0
KTUR 171050Z 01004KT 04/M01 A3009 RMK A01 T00371009  RH  073%=      5-min Rain = 0
KTUR 171055Z 02005KT 04/M01 A3009 RMK A01 T00371009  RH  073%=      5-min Rain = 0
KTUR 171100Z 01005KT 04/M01 A3009 RMK A01 T00351010  RH  073%=      5-min Rain = 0
KTUR 171105Z 02004KT 03/M01 A301 RMK A01 T00331009  RH  075%=      5-min Rain = 0
KTUR 171110Z 01003KT 03/M01 A3009 RMK A01 T00331009  RH  075%=      5-min Rain = 0
KTUR 171115Z 34003KT 03/M01 A3009 RMK A01 T00331009  RH  075%=      5-min Rain = 0
KTUR 171120Z 32003KT 03/M01 A3009 RMK A01 T00291011  RH  075%=      5-min Rain = 0
KTUR 171125Z 32003KT 03/M01 A3009 RMK A01 T00281010  RH  077%=      5-min Rain = 0
KTUR 171130Z 32004KT 03/M01 A3009 RMK A01 T00271010  RH  078%=      5-min Rain = 0
KTUR 171135Z 31003KT 03/M01 A3009 RMK A01 T00281009  RH  078%=      5-min Rain = 0
KTUR 171140Z 31003KT 03/M01 A3009 RMK A01 T00271009  RH  078%=      5-min Rain = 0
KTUR 171145Z 30003KT 03/M01 A3009 RMK A01 T00271008  RH  079%=      5-min Rain = 0
KTUR 171150Z 30004KT 03/M01 A3009 RMK A01 T00281006  RH  079%=      5-min Rain = 0
KTUR 171155Z 30004KT 03/M01 A301 RMK A01 T00321006  RH  077%=      5-min Rain = 0
KTUR 171200Z 29004KT 03/M01 A301 RMK A01 T00321008  RH  076%=      5-min Rain = 0
KTUR 171205Z 26004KT 02/M02 A301 RMK A01 T00201015  RH  078%=      5-min Rain = 0
KTUR 171210Z 26004KT 02/M01 A301 RMK A01 T00191011  RH  081%=      5-min Rain = 0
KTUR 171215Z 26004KT 02/M01 A301 RMK A01 T00231012  RH  078%=      5-min Rain = 0
KTUR 171220Z 25004KT 02/M01 A301 RMK A01 T00201014  RH  080%=      5-min Rain = 0
KTUR 171225Z 22005KT 02/M02 A301 RMK A01 T00161016  RH  080%=      5-min Rain = 0
KTUR 171230Z 20005KT 01/M02 A3011 RMK A01 T00101018  RH  082%=      5-min Rain = 0
KTUR 171235Z 19006KT 01/M02 A3011 RMK A01 T00081019  RH  083%=      5-min Rain = 0
KTUR 171240Z 19006KT 01/M02 A3011 RMK A01 T00061021  RH  083%=      5-min Rain = 0
KTUR 171245Z 20006KT 01/M02 A3011 RMK A01 T00071019  RH  084%=      5-min Rain = 0
KTUR 171250Z 19006KT 01/M02 A3012 RMK A01 T00111016  RH  083%=      5-min Rain = 0
KTUR 171255Z 18006KT 02/M01 A3012 RMK A01 T00181014  RH  080%=      5-min Rain = 0
KTUR 171300Z 18007KT 02/M02 A3012 RMK A01 T00181016  RH  079%=      5-min Rain = 0
KTUR 171305Z 18005KT 02/M02 A3013 RMK A01 T00161018  RH  079%=      5-min Rain = 0
KTUR 171310Z 20005KT 02/M02 A3013 RMK A01 T00151017  RH  080%=      5-min Rain = 0
KTUR 171315Z 19006KT 02/M02 A3013 RMK A01 T00221015  RH  077%=      5-min Rain = 0
KTUR 171320Z 19006KT 02/M01 A3014 RMK A01 T00231014  RH  078%=      5-min Rain = 0
KTUR 171325Z 21006KT 02/M01 A3014 RMK A01 T00231013  RH  078%=      5-min Rain = 0
KTUR 171330Z 21008KT 03/M01 A3014 RMK A01 T00261013  RH  076%=      5-min Rain = 0
KTUR 171335Z 22009KT 03/M02 A3014 RMK A01 T00281015  RH  074%=      5-min Rain = 0
KTUR 171340Z 23010KT 03/M02 A3014 RMK A01 T00321016  RH  072%=      5-min Rain = 0
KTUR 171345Z 22009KT 03/M02 A3014 RMK A01 T00341017  RH  070%=      5-min Rain = 0
KTUR 171350Z 22009KT 03/M02 A3015 RMK A01 T00331018  RH  070%=      5-min Rain = 0
KTUR 171355Z 23010KT 04/M02 A3015 RMK A01 T00351018  RH  069%=      5-min Rain = 0
KTUR 171400Z 24009KT 04/M02 A3015 RMK A01 T00361018  RH  069%=      5-min Rain = 0
KTUR 171405Z 24010KT 04/M02 A3015 RMK A01 T00381018  RH  067%=      5-min Rain = 0
KTUR 171410Z 24010KT 04/M02 A3015 RMK A01 T00411019  RH  066%=      5-min Rain = 0
KTUR 171415Z 24009KT 04/M02 A3015 RMK A01 T00431019  RH  065%=      5-min Rain = 0
KTUR 171420Z 24009KT 05/M02 A3016 RMK A01 T00451019  RH  064%=      5-min Rain = 0
KTUR 171425Z 24009KT 05/M02 A3016 RMK A01 T00461019  RH  064%=      5-min Rain = 0
KTUR 171430Z 24011KT 05/M02 A3016 RMK A01 T00471018  RH  063%=      5-min Rain = 0
KTUR 171435Z 24010KT 05/M02 A3016 RMK A01 T00471018  RH  063%=      5-min Rain = 0
KTUR 171440Z 24010KT 05/M02 A3016 RMK A01 T00471018  RH  063%=      5-min Rain = 0
KTUR 171445Z 25009KT 05/M02 A3016 RMK A01 T00481018  RH  063%=      5-min Rain = 0
KTUR 171450Z 25009KT 05/M02 A3016 RMK A01 T00481017  RH  063%=      5-min Rain = 0
KTUR 171455Z 25008KT 05/M02 A3016 RMK A01 T00491017  RH  063%=      5-min Rain = 0
KTUR 171500Z 24008KT 05/M02 A3016 RMK A01 T00541015  RH  062%=      5-min Rain = 0
KTUR 171505Z 24008KT 06/M01 A3016 RMK A01 T00591014  RH  060%=      5-min Rain = 0
KTUR 171510Z 23008KT 06/M01 A3016 RMK A01 T00631014  RH  058%=      5-min Rain = 0
KTUR 171515Z 23007KT 07/M01 A3016 RMK A01 T00661013  RH  058%=      5-min Rain = 0
KTUR 171520Z 24007KT 07/M01 A3016 RMK A01 T00711013  RH  056%=      5-min Rain = 0
KTUR 171525Z 24007KT 08/M01 A3016 RMK A01 T00771011  RH  054%=      5-min Rain = 0
KTUR 171530Z 23007KT 08/M01 A3016 RMK A01 T00811011  RH  053%=      5-min Rain = 0
KTUR 171535Z 23008KT 08/M01 A3016 RMK A01 T00831011  RH  052%=      5-min Rain = 0
KTUR 171540Z 24007KT 09/M01 A3017 RMK A01 T00861009  RH  052%=      5-min Rain = 0
KTUR 171545Z 25006KT 09/M01 A3017 RMK A01 T00921007  RH  050%=      5-min Rain = 0
KTUR 171550Z 27006KT 10/M01 A3017 RMK A01 T00991007  RH  048%=      5-min Rain = 0
KTUR 171555Z 27006KT 11/M01 A3017 RMK A01 T01071007  RH  045%=      5-min Rain = 0
KTUR 171600Z 29005KT 11/M01 A3017 RMK A01 T01131009  RH  043%=      5-min Rain = 0
KTUR 171605Z 28005KT 12/M01 A3017 RMK A01 T01161009  RH  043%=      5-min Rain = 0
KTUR 171610Z 28004KT 12/M01 A3017 RMK A01 T01181010  RH  041%=      5-min Rain = 0
KTUR 171615Z 27004KT 12/M01 A3017 RMK A01 T01201011  RH  041%=      5-min Rain = 0
KTUR 171620Z 28005KT 12/M01 A3017 RMK A01 T01221009  RH  041%=      5-min Rain = 0
KTUR 171625Z 31006KT 13/M01 A3017 RMK A01 T01251008  RH  040%=      5-min Rain = 0
KTUR 171630Z 32006KT 13/M01 A3017 RMK A01 T01271010  RH  039%=      5-min Rain = 0
KTUR 171635Z 32007KT 13/M01 A3017 RMK A01 T01291009  RH  039%=      5-min Rain = 0
KTUR 171640Z 31007KT 13/M01 A3018 RMK A01 T01291007  RH  039%=      5-min Rain = 0
KTUR 171645Z 31008KT 13/M01 A3018 RMK A01 T01301008  RH  039%=      5-min Rain = 0
KTUR 171650Z 32007KT 13/M01 A3018 RMK A01 T01341006  RH  038%=      5-min Rain = 0
KTUR 171655Z 32007KT 13/M01 A3018 RMK A01 T01331007  RH  039%=      5-min Rain = 0
KTUR 171700Z 33006KT 14/M01 A3018 RMK A01 T01351006  RH  038%=      5-min Rain = 0
KTUR 171705Z 32005KT 14/M01 A3018 RMK A01 T01351007  RH  038%=      5-min Rain = 0
KTUR 171710Z 33005KT 14/M01 A3018 RMK A01 T01381006  RH  038%=      5-min Rain = 0
KTUR 171715Z 33005KT 14/M01 A3018 RMK A01 T01431005  RH  037%=      5-min Rain = 0
KTUR 171720Z 32004KT 15/M01 A3018 RMK A01 T01451005  RH  036%=      5-min Rain = 0
KTUR 171725Z 34004KT 14/M00 A3018 RMK A01 T01441004  RH  037%=      5-min Rain = 0
KTUR 171730Z 35004KT 15/M01 A3019 RMK A01 T01481006  RH  035%=      5-min Rain = 0
KTUR 171735Z 01002KT 15/M01 A3019 RMK A01 T01491005  RH  035%=      5-min Rain = 0
KTUR 171740Z 10001KT 15/M00 A3019 RMK A01 T01541004  RH  034%=      5-min Rain = 0
KTUR 171745Z 10001G6KT 16/M01 A3019 RMK A01 T01581005  RH  033%=      5-min Rain = 0
KTUR 171750Z 11004KT 15/M00 A3019 RMK A01 T01531004  RH  035%=      5-min Rain = 0
KTUR 171755Z 13003KT 15/M00 A3019 RMK A01 T01531003  RH  035%=      5-min Rain = 0
KTUR 171800Z 08002KT 16/M00 A3019 RMK A01 T01571004  RH  034%=      5-min Rain = 0
KTUR 171805Z 08003KT 16/M01 A3019 RMK A01 T01611005  RH  032%=      5-min Rain = 0
KTUR 171810Z 09003KT 16/M01 A3019 RMK A01 T01581008  RH  032%=      5-min Rain = 0
KTUR 171815Z 09003KT 16/M01 A3019 RMK A01 T01601006  RH  033%=      5-min Rain = 0
KTUR 171820Z 06003KT 16/M01 A3018 RMK A01 T01591008  RH  032%=      5-min Rain = 0
KTUR 171825Z 10002KT 16/M01 A3018 RMK A01 T01631007  RH  032%=      5-min Rain = 0
KTUR 171830Z 09004KT 16/M01 A3018 RMK A01 T01621008  RH  032%=      5-min Rain = 0
KTUR 171835Z 13002KT 16/M01 A3017 RMK A01 T01631007  RH  032%=      5-min Rain = 0
KTUR 171840Z 06001KT 17/M01 A3016 RMK A01 T01661008  RH  031%=      5-min Rain = 0
KTUR 171845Z 04003KT 16/M01 A3016 RMK A01 T01641009  RH  031%=      5-min Rain = 0
KTUR 171850Z 08002KT 17/M01 A3015 RMK A01 T01651008  RH  031%=      5-min Rain = 0
KTUR 171855Z 11002KT 17/M01 A3015 RMK A01 T01661010  RH  031%=      5-min Rain = 0
KTUR 171900Z 08002KT 17/M01 A3014 RMK A01 T01661010  RH  030%=      5-min Rain = 0
KTUR 171905Z 11001KT 17/M01 A3014 RMK A01 T01701010  RH  030%=      5-min Rain = 0
KTUR 171910Z 11003KT 17/M01 A3014 RMK A01 T01711012  RH  029%=      5-min Rain = 0
KTUR 171915Z 12004KT 17/M02 A3014 RMK A01 T01701015  RH  029%=      5-min Rain = 0
KTUR 171920Z 13003KT 17/M01 A3014 RMK A01 T01711014  RH  029%=      5-min Rain = 0
KTUR 171925Z 11003KT 17/M02 A3013 RMK A01 T01731015  RH  028%=      5-min Rain = 0
KTUR 171930Z 07000KT 17/M01 A3013 RMK A01 T01731013  RH  029%=      5-min Rain = 0
KTUR 171935Z 11004KT 18/M01 A3012 RMK A01 T01751010  RH  029%=      5-min Rain = 0
KTUR 171940Z 13005KT 18/M01 A3012 RMK A01 T01771009  RH  029%=      5-min Rain = 0
KTUR 171945Z 10005KT 18/M01 A3011 RMK A01 T01761010  RH  029%=      5-min Rain = 0
KTUR 171950Z 10004KT 17/M01 A3011 RMK A01 T01741011  RH  029%=      5-min Rain = 0
KTUR 171955Z 11005KT 18/M01 A301 RMK A01 T01781010  RH  028%=      5-min Rain = 0
KTUR 172000Z 10004KT 18/M01 A301 RMK A01 T01771011  RH  028%=      5-min Rain = 0
KTUR 172005Z 15005KT 18/M01 A3009 RMK A01 T01811012  RH  027%=      5-min Rain = 0
KTUR 172010Z 18002KT 18/M01 A3009 RMK A01 T01801014  RH  027%=      5-min Rain = 0
KTUR 172015Z 17005G10KT 18/M01 A3009 RMK A01 T01811013  RH  027%=      5-min Rain = 0
KTUR 172020Z 12005KT 18/M01 A3009 RMK A01 T01801014  RH  027%=      5-min Rain = 0
KTUR 172025Z 13002KT 18/M01 A3009 RMK A01 T01821014  RH  027%=      5-min Rain = 0
KTUR 172030Z 12004KT 18/M01 A3009 RMK A01 T01831014  RH  027%=      5-min Rain = 0
KTUR 172035Z 13005KT 18/M02 A3009 RMK A01 T01831015  RH  026%=      5-min Rain = 0
KTUR 172040Z 13005KT 19/M01 A3008 RMK A01 T01861014  RH  026%=      5-min Rain = 0
KTUR 172045Z 12005KT 19/M01 A3008 RMK A01 T01851014  RH  026%=      5-min Rain = 0
KTUR 172050Z 11004KT 19/M01 A3008 RMK A01 T01871014  RH  026%=      5-min Rain = 0
KTUR 172055Z 10005KT 19/M02 A3008 RMK A01 T01871015  RH  026%=      5-min Rain = 0
KTUR 172100Z 13006KT 19/M02 A3008 RMK A01 T01891015  RH  025%=      5-min Rain = 0
KTUR 172105Z 13003KT 19/M02 A3007 RMK A01 T01901015  RH  025%=      5-min Rain = 0
KTUR 172110Z 13005KT 19/M02 A3007 RMK A01 T01921015  RH  025%=      5-min Rain = 0
KTUR 172115Z 10005KT 19/M02 A3007 RMK A01 T01891016  RH  025%=      5-min Rain = 0
KTUR 172120Z 14006KT 19/M02 A3007 RMK A01 T01891016  RH  025%=      5-min Rain = 0
KTUR 172125Z 11006KT 19/M02 A3007 RMK A01 T01911017  RH  025%=      5-min Rain = 0
KTUR 172130Z 14006KT 19/M02 A3007 RMK A01 T01891017  RH  025%=      5-min Rain = 0
KTUR 172135Z 12006KT 19/M02 A3007 RMK A01 T01911017  RH  025%=      5-min Rain = 0
KTUR 172140Z 11007G13KT 19/M02 A3006 RMK A01 T01901017  RH  025%=      5-min Rain = 0
KTUR 172145Z 12009KT 19/M02 A3006 RMK A01 T01901017  RH  025%=      5-min Rain = 0
KTUR 172150Z 12007KT 19/M02 A3006 RMK A01 T01891016  RH  025%=      5-min Rain = 0
KTUR 172155Z 12007KT 19/M02 A3006 RMK A01 T01891016  RH  025%=      5-min Rain = 0
KTUR 172200Z 15006KT 19/M02 A3007 RMK A01 T01901016  RH  025%=      5-min Rain = 0
KTUR 172205Z 12008KT 19/M02 A3006 RMK A01 T01901016  RH  025%=      5-min Rain = 0
KTUR 172210Z 13008KT 19/M02 A3006 RMK A01 T01891015  RH  025%=      5-min Rain = 0
KTUR 172215Z 13009KT 19/M01 A3006 RMK A01 T01891013  RH  026%=      5-min Rain = 0
KTUR 172220Z 13010KT 19/M01 A3006 RMK A01 T01881013  RH  026%=      5-min Rain = 0
KTUR 172225Z 12010KT 19/M01 A3006 RMK A01 T01861014  RH  026%=      5-min Rain = 0
KTUR 172230Z 12011KT 19/M01 A3006 RMK A01 T01871013  RH  026%=      5-min Rain = 0
KTUR 172235Z 13010KT 19/M01 A3006 RMK A01 T01871011  RH  026%=      5-min Rain = 0
KTUR 172240Z 12010KT 19/M01 A3006 RMK A01 T01851007  RH  028%=      5-min Rain = 0
KTUR 172245Z 12010KT 18/M01 A3006 RMK A01 T01841006  RH  028%=      5-min Rain = 0
KTUR 172250Z 11010KT 18/M01 A3005 RMK A01 T01821005  RH  028%=      5-min Rain = 0
KTUR 172255Z 11009KT 18/M00 A3005 RMK A01 T01821004  RH  029%=      5-min Rain = 0
KTUR 172300Z 12009KT 18/M01 A3005 RMK A01 T01821006  RH  028%=      5-min Rain = 0
KTUR 172305Z 12010KT 18/M01 A3005 RMK A01 T01811007  RH  028%=      5-min Rain = 0
KTUR 172310Z 12010KT 18/M01 A3005 RMK A01 T01781006  RH  029%=      5-min Rain = 0
KTUR 172315Z 12011KT 18/M01 A3005 RMK A01 T01771006  RH  029%=      5-min Rain = 0
KTUR 172320Z 12011KT 17/M00 A3005 RMK A01 T01741004  RH  030%=      5-min Rain = 0
KTUR 172325Z 12012KT 17/M00 A3005 RMK A01 T01721004  RH  031%=      5-min Rain = 0
KTUR 172330Z 12011KT 17/M00 A3005 RMK A01 T01691003  RH  032%=      5-min Rain = 0
KTUR 172335Z 12011KT 17/M00 A3005 RMK A01 T01651002  RH  033%=      5-min Rain = 0
KTUR 172340Z 12010KT 16/M00 A3005 RMK A01 T01611001  RH  033%=      5-min Rain = 0
KTUR 172345Z 11010KT 16/M00 A3005 RMK A01 T01571001  RH  034%=      5-min Rain = 0
KTUR 172350Z 12010KT 15/M00 A3005 RMK A01 T01531001  RH  035%=      5-min Rain = 0
KTUR 172355Z 11010KT 15/M00 A3005 RMK A01 T01491001  RH  036%=      5-min Rain = 0
KTUR 180000Z 12009KT 14/M00 A3005 RMK A01 T01431002  RH  037%=      5-min Rain = 0
KTUR 180005Z 12010KT 14/00 A3005 RMK A01 T01420000  RH  038%=      5-min Rain = 0
KTUR 180010Z 11010KT 14/00 A3005 RMK A01 T01370002  RH  040%=      5-min Rain = 0
KTUR 180015Z 12011KT 14/01 A3005 RMK A01 T01350005  RH  042%=      5-min Rain = 0
KTUR 180020Z 12010KT 13/01 A3005 RMK A01 T01320007  RH  043%=      5-min Rain = 0
KTUR 180025Z 12010KT 13/01 A3005 RMK A01 T01280008  RH  044%=      5-min Rain = 0
KTUR 180030Z 12009KT 13/01 A3005 RMK A01 T01250008  RH  045%=      5-min Rain = 0
KTUR 180035Z 12009KT 12/01 A3005 RMK A01 T01220009  RH  046%=      5-min Rain = 0
KTUR 180040Z 12009KT 12/01 A3004 RMK A01 T01190009  RH  048%=      5-min Rain = 0
KTUR 180045Z 12009KT 12/01 A3005 RMK A01 T01160010  RH  049%=      5-min Rain = 0
KTUR 180050Z 12009KT 11/01 A3005 RMK A01 T01140010  RH  049%=      5-min Rain = 0
KTUR 180055Z 12009KT 11/01 A3005 RMK A01 T01120009  RH  050%=      5-min Rain = 0
KTUR 180100Z 11009KT 11/01 A3005 RMK A01 T01090009  RH  051%=      5-min Rain = 0
KTUR 180105Z 11009KT 11/01 A3005 RMK A01 T01070009  RH  051%=      5-min Rain = 0
KTUR 180110Z 11009KT 11/01 A3005 RMK A01 T01060009  RH  052%=      5-min Rain = 0
KTUR 180115Z 11009KT 10/01 A3005 RMK A01 T01040008  RH  052%=      5-min Rain = 0
KTUR 180120Z 11009KT 10/01 A3005 RMK A01 T01020008  RH  053%=      5-min Rain = 0
KTUR 180125Z 12009KT 10/01 A3005 RMK A01 T01010008  RH  053%=      5-min Rain = 0
KTUR 180130Z 12009KT 10/01 A3005 RMK A01 T00980008  RH  054%=      5-min Rain = 0
KTUR 180135Z 12008KT 09/01 A3005 RMK A01 T00940008  RH  055%=      5-min Rain = 0
KTUR 180140Z 12009KT 09/01 A3005 RMK A01 T00910007  RH  056%=      5-min Rain = 0
KTUR 180145Z 12009KT 09/01 A3005 RMK A01 T00890007  RH  057%=      5-min Rain = 0
KTUR 180150Z 13009KT 09/01 A3005 RMK A01 T00860007  RH  058%=      5-min Rain = 0
KTUR 180155Z 13008KT 09/01 A3005 RMK A01 T00850006  RH  059%=      5-min Rain = 0
KTUR 180200Z 13009KT 08/01 A3005 RMK A01 T00820006  RH  059%=      5-min Rain = 0
KTUR 180205Z 13008KT 08/01 A3005 RMK A01 T00800006  RH  060%=      5-min Rain = 0
KTUR 180210Z 14008KT 08/01 A3005 RMK A01 T00770006  RH  061%=      5-min Rain = 0
KTUR 180215Z 14008KT 08/01 A3005 RMK A01 T00780008  RH  062%=      5-min Rain = 0
KTUR 180220Z 14008KT 08/01 A3005 RMK A01 T00810009  RH  061%=      5-min Rain = 0
KTUR 180225Z 14008KT 08/01 A3005 RMK A01 T00820010  RH  061%=      5-min Rain = 0
KTUR 180230Z 14008KT 08/01 A3004 RMK A01 T00810010  RH  061%=      5-min Rain = 0
KTUR 180235Z 14008KT 08/01 A3004 RMK A01 T00790010  RH  062%=      5-min Rain = 0
KTUR 180240Z 13008KT 08/01 A3004 RMK A01 T00760008  RH  063%=      5-min Rain = 0
KTUR 180245Z 13007KT 07/01 A3004 RMK A01 T00710007  RH  065%=      5-min Rain = 0
KTUR 180250Z 13006KT 07/01 A3004 RMK A01 T00690008  RH  066%=      5-min Rain = 0
KTUR 180255Z 13006KT 07/01 A3004 RMK A01 T00680007  RH  066%=      5-min Rain = 0
KTUR 180300Z 14007KT 07/01 A3004 RMK A01 T00660007  RH  067%=      5-min Rain = 0
KTUR 180305Z 14008KT 07/01 A3004 RMK A01 T00670008  RH  067%=      5-min Rain = 0
KTUR 180310Z 14008KT 07/01 A3004 RMK A01 T00690010  RH  067%=      5-min Rain = 0
KTUR 180315Z 13009KT 07/01 A3003 RMK A01 T00700011  RH  066%=      5-min Rain = 0
KTUR 180320Z 13008KT 07/01 A3003 RMK A01 T00700010  RH  066%=      5-min Rain = 0
KTUR 180325Z 13008KT 07/01 A3003 RMK A01 T00670009  RH  067%=      5-min Rain = 0
KTUR 180330Z 13009KT 06/01 A3003 RMK A01 T00630008  RH  069%=      5-min Rain = 0
KTUR 180335Z 13010KT 06/01 A3002 RMK A01 T00600008  RH  070%=      5-min Rain = 0
KTUR 180340Z 13010KT 06/01 A3002 RMK A01 T00600008  RH  071%=      5-min Rain = 0
KTUR 180345Z 13009KT 06/01 A3002 RMK A01 T00590008  RH  071%=      5-min Rain = 0
KTUR 180350Z 14009KT 06/01 A3001 RMK A01 T00590009  RH  071%=      5-min Rain = 0
KTUR 180355Z 14009KT 06/01 A3001 RMK A01 T00610010  RH  071%=      5-min Rain = 0
KTUR 180400Z 15008KT 06/01 A3001 RMK A01 T00600009  RH  071%=      5-min Rain = 0
KTUR 180405Z 15008KT 06/01 A3001 RMK A01 T00600010  RH  071%=      5-min Rain = 0
KTUR 180410Z 16009KT 06/01 A3001 RMK A01 T00610011  RH  071%=      5-min Rain = 0
KTUR 180415Z 16009KT 06/01 A3001 RMK A01 T00610010  RH  071%=      5-min Rain = 0
KTUR 180420Z 17008KT 06/01 A3001 RMK A01 T00560009  RH  072%=      5-min Rain = 0
KTUR 180425Z 17008KT 05/01 A3001 RMK A01 T00530008  RH  074%=      5-min Rain = 0
KTUR 180430Z 18007KT 05/01 A3001 RMK A01 T00500006  RH  074%=      5-min Rain = 0
KTUR 180435Z 18006KT 05/01 A3001 RMK A01 T00460005  RH  076%=      5-min Rain = 0
KTUR 180440Z 18006KT 05/01 A30 RMK A01 T00450005  RH  076%=      5-min Rain = 0
KTUR 180445Z 18007KT 04/00 A30 RMK A01 T00430004  RH  077%=      5-min Rain = 0
KTUR 180450Z 17006KT 05/01 A30 RMK A01 T00450005  RH  077%=      5-min Rain = 0
KTUR 180455Z 17006KT 05/01 A30 RMK A01 T00500007  RH  075%=      5-min Rain = 0
KTUR 180500Z 17005KT 05/01 A30 RMK A01 T00530008  RH  074%=      5-min Rain = 0
KTUR 180505Z 16006KT 06/01 A30 RMK A01 T00550009  RH  073%=      5-min Rain = 0
KTUR 180510Z 16005KT 06/01 A30 RMK A01 T00570009  RH  072%=      5-min Rain = 0
KTUR 180515Z 16006KT 05/01 A30 RMK A01 T00530008  RH  074%=      5-min Rain = 0
KTUR 180520Z 16006KT 05/01 A2999 RMK A01 T00530010  RH  075%=      5-min Rain = 0
KTUR 180525Z 15007KT 05/01 A2999 RMK A01 T00530010  RH  074%=      5-min Rain = 0
KTUR 180530Z 15008KT 05/01 A2999 RMK A01 T00520010  RH  075%=      5-min Rain = 0
KTUR 180535Z 15008KT 05/01 A2999 RMK A01 T00530012  RH  076%=      5-min Rain = 0
KTUR 180540Z 15007KT 05/01 A2999 RMK A01 T00540013  RH  076%=      5-min Rain = 0
KTUR 180545Z 15008KT 05/01 A2999 RMK A01 T00540013  RH  076%=      5-min Rain = 0
KTUR 180550Z 16008KT 05/01 A2999 RMK A01 T00530014  RH  077%=      5-min Rain = 0
KTUR 180555Z 16008KT 05/02 A2998 RMK A01 T00540016  RH  078%=      5-min Rain = 0

Page generated in 0.0093 seconds.